sensor_id;sensor_type;location;lat;lon;timestamp;P1;P2;P0
49914;PMS5003;35806;47.958;13.158;2022-09-12T00:02:11;3;3;
49914;PMS5003;35806;47.958;13.158;2022-09-12T00:04:39;4;4;
49914;PMS5003;35806;47.958;13.158;2022-09-12T00:07:05;4;3;
49914;PMS5003;35806;47.958;13.158;2022-09-12T00:09:33;3;3;
49914;PMS5003;35806;47.958;13.158;2022-09-12T00:12:01;4;4;
49914;PMS5003;35806;47.958;13.158;2022-09-12T00:14:28;2;2;
49914;PMS5003;35806;47.958;13.158;2022-09-12T00:16:56;4;4;
49914;PMS5003;35806;47.958;13.158;2022-09-12T00:19:24;2;2;
49914;PMS5003;35806;47.958;13.158;2022-09-12T00:21:51;1;1;
49914;PMS5003;35806;47.958;13.158;2022-09-12T00:24:19;3;3;
49914;PMS5003;35806;47.958;13.158;2022-09-12T00:26:46;3;3;
49914;PMS5003;35806;47.958;13.158;2022-09-12T00:29:15;3;3;
49914;PMS5003;35806;47.958;13.158;2022-09-12T00:31:44;1;1;
49914;PMS5003;35806;47.958;13.158;2022-09-12T00:34:11;4;4;
49914;PMS5003;35806;47.958;13.158;2022-09-12T00:36:39;3;3;
49914;PMS5003;35806;47.958;13.158;2022-09-12T00:39:06;3;3;
49914;PMS5003;35806;47.958;13.158;2022-09-12T00:41:35;3;3;
49914;PMS5003;35806;47.958;13.158;2022-09-12T00:44:40;3;3;
49914;PMS5003;35806;47.958;13.158;2022-09-12T00:47:13;3;3;
49914;PMS5003;35806;47.958;13.158;2022-09-12T00:49:45;3;3;
49914;PMS5003;35806;47.958;13.158;2022-09-12T00:52:15;4;3;
49914;PMS5003;35806;47.958;13.158;2022-09-12T00:54:49;3;3;
49914;PMS5003;35806;47.958;13.158;2022-09-12T00:57:20;5;4;
49914;PMS5003;35806;47.958;13.158;2022-09-12T00:59:52;3;2;
49914;PMS5003;35806;47.958;13.158;2022-09-12T01:15:27;5;3;
49914;PMS5003;35806;47.958;13.158;2022-09-12T01:17:59;4;4;
49914;PMS5003;35806;47.958;13.158;2022-09-12T01:20:45;3;3;
49914;PMS5003;35806;47.958;13.158;2022-09-12T01:23:42;3;3;
49914;PMS5003;35806;47.958;13.158;2022-09-12T01:26:39;1;1;
49914;PMS5003;35806;47.958;13.158;2022-09-12T01:29:29;3;3;
49914;PMS5003;35806;47.958;13.158;2022-09-12T01:32:12;4;4;
49914;PMS5003;35806;47.958;13.158;2022-09-12T01:34:49;4;4;
49914;PMS5003;35806;47.958;13.158;2022-09-12T01:37:25;2;2;
49914;PMS5003;35806;47.958;13.158;2022-09-12T01:39:58;3;3;
49914;PMS5003;35806;47.958;13.158;2022-09-12T01:42:33;2;2;
49914;PMS5003;35806;47.958;13.158;2022-09-12T01:45:07;4;4;
49914;PMS5003;35806;47.958;13.158;2022-09-12T01:47:39;3;3;
49914;PMS5003;35806;47.958;13.158;2022-09-12T01:50:10;3;3;
49914;PMS5003;35806;47.958;13.158;2022-09-12T01:52:43;3;3;
49914;PMS5003;35806;47.958;13.158;2022-09-12T01:55:21;3;3;
49914;PMS5003;35806;47.958;13.158;2022-09-12T01:57:53;3;3;
49914;PMS5003;35806;47.958;13.158;2022-09-12T02:00:25;3;3;
49914;PMS5003;35806;47.958;13.158;2022-09-12T02:02:54;3;3;
49914;PMS5003;35806;47.958;13.158;2022-09-12T02:05:26;5;3;
49914;PMS5003;35806;47.958;13.158;2022-09-12T02:07:57;3;3;
49914;PMS5003;35806;47.958;13.158;2022-09-12T02:10:32;4;3;
49914;PMS5003;35806;47.958;13.158;2022-09-12T02:13:05;5;3;
49914;PMS5003;35806;47.958;13.158;2022-09-12T02:15:38;3;3;
49914;PMS5003;35806;47.958;13.158;2022-09-12T02:18:09;3;3;
49914;PMS5003;35806;47.958;13.158;2022-09-12T02:20:39;4;4;
49914;PMS5003;35806;47.958;13.158;2022-09-12T02:23:10;3;3;
49914;PMS5003;35806;47.958;13.158;2022-09-12T02:25:42;3;3;
49914;PMS5003;35806;47.958;13.158;2022-09-12T02:28:13;3;3;
49914;PMS5003;35806;47.958;13.158;2022-09-12T02:30:47;4;4;
49914;PMS5003;35806;47.958;13.158;2022-09-12T02:33:23;4;4;
49914;PMS5003;35806;47.958;13.158;2022-09-12T02:35:57;2;2;
49914;PMS5003;35806;47.958;13.158;2022-09-12T02:38:31;5;5;
49914;PMS5003;35806;47.958;13.158;2022-09-12T02:41:03;2;2;
49914;PMS5003;35806;47.958;13.158;2022-09-12T02:43:30;4;4;
49914;PMS5003;35806;47.958;13.158;2022-09-12T02:45:58;4;4;
49914;PMS5003;35806;47.958;13.158;2022-09-12T02:48:26;3;3;
49914;PMS5003;35806;47.958;13.158;2022-09-12T02:50:57;4;4;
49914;PMS5003;35806;47.958;13.158;2022-09-12T02:53:25;3;3;
49914;PMS5003;35806;47.958;13.158;2022-09-12T02:55:52;2;2;
49914;PMS5003;35806;47.958;13.158;2022-09-12T02:58:21;6;4;
49914;PMS5003;35806;47.958;13.158;2022-09-12T03:00:53;2;2;
49914;PMS5003;35806;47.958;13.158;2022-09-12T03:03:30;6;5;
49914;PMS5003;35806;47.958;13.158;2022-09-12T03:06:11;4;4;
49914;PMS5003;35806;47.958;13.158;2022-09-12T03:08:49;3;3;
49914;PMS5003;35806;47.958;13.158;2022-09-12T03:11:25;4;4;
49914;PMS5003;35806;47.958;13.158;2022-09-12T03:14:06;5;4;
49914;PMS5003;35806;47.958;13.158;2022-09-12T03:16:46;2;2;
49914;PMS5003;35806;47.958;13.158;2022-09-12T03:19:22;6;6;
49914;PMS5003;35806;47.958;13.158;2022-09-12T03:21:57;5;4;
49914;PMS5003;35806;47.958;13.158;2022-09-12T03:24:36;4;4;
49914;PMS5003;35806;47.958;13.158;2022-09-12T03:27:11;4;4;
49914;PMS5003;35806;47.958;13.158;2022-09-12T03:29:42;4;4;
49914;PMS5003;35806;47.958;13.158;2022-09-12T03:32:12;3;3;
49914;PMS5003;35806;47.958;13.158;2022-09-12T03:34:40;3;3;
49914;PMS5003;35806;47.958;13.158;2022-09-12T03:37:07;5;5;
49914;PMS5003;35806;47.958;13.158;2022-09-12T03:39:35;5;5;
49914;PMS5003;35806;47.958;13.158;2022-09-12T03:42:02;5;5;
49914;PMS5003;35806;47.958;13.158;2022-09-12T03:44:30;5;5;
49914;PMS5003;35806;47.958;13.158;2022-09-12T03:46:57;4;4;
49914;PMS5003;35806;47.958;13.158;2022-09-12T03:49:24;3;3;
49914;PMS5003;35806;47.958;13.158;2022-09-12T03:51:52;5;5;
49914;PMS5003;35806;47.958;13.158;2022-09-12T03:54:19;4;4;
49914;PMS5003;35806;47.958;13.158;2022-09-12T03:56:47;5;5;
49914;PMS5003;35806;47.958;13.158;2022-09-12T03:59:13;5;3;
49914;PMS5003;35806;47.958;13.158;2022-09-12T04:01:40;4;4;
49914;PMS5003;35806;47.958;13.158;2022-09-12T04:04:08;4;4;
49914;PMS5003;35806;47.958;13.158;2022-09-12T04:06:35;2;2;
49914;PMS5003;35806;47.958;13.158;2022-09-12T04:09:03;5;4;
49914;PMS5003;35806;47.958;13.158;2022-09-12T04:11:30;3;3;
49914;PMS5003;35806;47.958;13.158;2022-09-12T04:13:58;4;4;
49914;PMS5003;35806;47.958;13.158;2022-09-12T04:16:25;4;4;
49914;PMS5003;35806;47.958;13.158;2022-09-12T04:18:53;3;3;
49914;PMS5003;35806;47.958;13.158;2022-09-12T04:21:20;4;4;
49914;PMS5003;35806;47.958;13.158;2022-09-12T04:23:48;4;4;
49914;PMS5003;35806;47.958;13.158;2022-09-12T04:26:16;5;5;
49914;PMS5003;35806;47.958;13.158;2022-09-12T04:28:44;5;5;
49914;PMS5003;35806;47.958;13.158;2022-09-12T04:31:12;4;4;
49914;PMS5003;35806;47.958;13.158;2022-09-12T04:33:41;5;5;
49914;PMS5003;35806;47.958;13.158;2022-09-12T04:36:09;4;4;
49914;PMS5003;35806;47.958;13.158;2022-09-12T04:38:37;5;5;
49914;PMS5003;35806;47.958;13.158;2022-09-12T04:41:13;6;6;
49914;PMS5003;35806;47.958;13.158;2022-09-12T04:43:42;4;4;
49914;PMS5003;35806;47.958;13.158;2022-09-12T04:46:10;5;5;
49914;PMS5003;35806;47.958;13.158;2022-09-12T04:48:38;6;6;
49914;PMS5003;35806;47.958;13.158;2022-09-12T04:51:06;4;4;
49914;PMS5003;35806;47.958;13.158;2022-09-12T04:53:35;4;4;
49914;PMS5003;35806;47.958;13.158;2022-09-12T04:56:04;5;5;
49914;PMS5003;35806;47.958;13.158;2022-09-12T04:58:33;4;4;
49914;PMS5003;35806;47.958;13.158;2022-09-12T05:01:07;6;6;
49914;PMS5003;35806;47.958;13.158;2022-09-12T05:03:35;5;5;
49914;PMS5003;35806;47.958;13.158;2022-09-12T05:06:03;8;6;
49914;PMS5003;35806;47.958;13.158;2022-09-12T05:08:36;6;6;
49914;PMS5003;35806;47.958;13.158;2022-09-12T05:11:09;4;4;
49914;PMS5003;35806;47.958;13.158;2022-09-12T05:13:38;4;4;
49914;PMS5003;35806;47.958;13.158;2022-09-12T05:16:06;5;4;
49914;PMS5003;35806;47.958;13.158;2022-09-12T05:18:36;6;6;
49914;PMS5003;35806;47.958;13.158;2022-09-12T05:21:09;6;6;
49914;PMS5003;35806;47.958;13.158;2022-09-12T05:23:38;4;4;
49914;PMS5003;35806;47.958;13.158;2022-09-12T05:26:12;4;4;
49914;PMS5003;35806;47.958;13.158;2022-09-12T05:28:41;3;3;
49914;PMS5003;35806;47.958;13.158;2022-09-12T05:31:10;4;4;
49914;PMS5003;35806;47.958;13.158;2022-09-12T05:33:41;5;5;
49914;PMS5003;35806;47.958;13.158;2022-09-12T05:36:11;4;4;
49914;PMS5003;35806;47.958;13.158;2022-09-12T05:38:40;5;5;
49914;PMS5003;35806;47.958;13.158;2022-09-12T05:41:08;5;3;
49914;PMS5003;35806;47.958;13.158;2022-09-12T05:43:38;8;6;
49914;PMS5003;35806;47.958;13.158;2022-09-12T05:46:08;5;5;
49914;PMS5003;35806;47.958;13.158;2022-09-12T05:48:39;7;5;
49914;PMS5003;35806;47.958;13.158;2022-09-12T05:51:08;5;5;
49914;PMS5003;35806;47.958;13.158;2022-09-12T05:53:42;6;6;
49914;PMS5003;35806;47.958;13.158;2022-09-12T05:56:12;5;5;
49914;PMS5003;35806;47.958;13.158;2022-09-12T05:58:41;7;7;
49914;PMS5003;35806;47.958;13.158;2022-09-12T06:01:11;5;5;
49914;PMS5003;35806;47.958;13.158;2022-09-12T06:03:40;5;5;
49914;PMS5003;35806;47.958;13.158;2022-09-12T06:06:09;7;6;
49914;PMS5003;35806;47.958;13.158;2022-09-12T06:08:37;4;4;
49914;PMS5003;35806;47.958;13.158;2022-09-12T06:11:07;5;5;
49914;PMS5003;35806;47.958;13.158;2022-09-12T06:13:36;6;6;
49914;PMS5003;35806;47.958;13.158;2022-09-12T06:16:13;6;6;
49914;PMS5003;35806;47.958;13.158;2022-09-12T06:18:45;6;6;
49914;PMS5003;35806;47.958;13.158;2022-09-12T06:21:14;7;7;
49914;PMS5003;35806;47.958;13.158;2022-09-12T06:23:41;6;6;
49914;PMS5003;35806;47.958;13.158;2022-09-12T06:26:09;6;5;
49914;PMS5003;35806;47.958;13.158;2022-09-12T06:28:38;7;6;
49914;PMS5003;35806;47.958;13.158;2022-09-12T06:31:28;4;4;
49914;PMS5003;35806;47.958;13.158;2022-09-12T06:33:58;5;5;
49914;PMS5003;35806;47.958;13.158;2022-09-12T06:36:42;7;7;
49914;PMS5003;35806;47.958;13.158;2022-09-12T06:39:12;5;5;
49914;PMS5003;35806;47.958;13.158;2022-09-12T06:41:48;5;5;
49914;PMS5003;35806;47.958;13.158;2022-09-12T06:44:19;7;7;
49914;PMS5003;35806;47.958;13.158;2022-09-12T06:46:48;9;7;
49914;PMS5003;35806;47.958;13.158;2022-09-12T06:49:17;4;4;
49914;PMS5003;35806;47.958;13.158;2022-09-12T06:51:45;5;5;
49914;PMS5003;35806;47.958;13.158;2022-09-12T06:54:30;6;5;
49914;PMS5003;35806;47.958;13.158;2022-09-12T06:56:58;6;6;
49914;PMS5003;35806;47.958;13.158;2022-09-12T06:59:25;5;5;
49914;PMS5003;35806;47.958;13.158;2022-09-12T07:01:53;6;6;
49914;PMS5003;35806;47.958;13.158;2022-09-12T07:04:19;6;6;
49914;PMS5003;35806;47.958;13.158;2022-09-12T07:06:47;6;5;
49914;PMS5003;35806;47.958;13.158;2022-09-12T07:09:14;6;6;
49914;PMS5003;35806;47.958;13.158;2022-09-12T07:11:47;6;6;
49914;PMS5003;35806;47.958;13.158;2022-09-12T07:14:14;7;7;
49914;PMS5003;35806;47.958;13.158;2022-09-12T07:16:41;4;4;
49914;PMS5003;35806;47.958;13.158;2022-09-12T07:19:14;5;5;
49914;PMS5003;35806;47.958;13.158;2022-09-12T07:21:41;8;7;
49914;PMS5003;35806;47.958;13.158;2022-09-12T07:24:09;6;6;
49914;PMS5003;35806;47.958;13.158;2022-09-12T07:26:36;7;7;
49914;PMS5003;35806;47.958;13.158;2022-09-12T07:29:05;6;6;
49914;PMS5003;35806;47.958;13.158;2022-09-12T07:31:33;7;7;
49914;PMS5003;35806;47.958;13.158;2022-09-12T07:34:03;5;5;
49914;PMS5003;35806;47.958;13.158;2022-09-12T07:36:31;6;6;
49914;PMS5003;35806;47.958;13.158;2022-09-12T07:38:59;7;7;
49914;PMS5003;35806;47.958;13.158;2022-09-12T07:41:27;6;6;
49914;PMS5003;35806;47.958;13.158;2022-09-12T07:43:56;8;6;
49914;PMS5003;35806;47.958;13.158;2022-09-12T07:46:24;5;5;
49914;PMS5003;35806;47.958;13.158;2022-09-12T07:49:07;5;5;
49914;PMS5003;35806;47.958;13.158;2022-09-12T07:51:34;6;6;
49914;PMS5003;35806;47.958;13.158;2022-09-12T07:54:05;7;6;
49914;PMS5003;35806;47.958;13.158;2022-09-12T07:56:34;4;4;
49914;PMS5003;35806;47.958;13.158;2022-09-12T07:59:01;5;5;
49914;PMS5003;35806;47.958;13.158;2022-09-12T08:01:28;6;6;
49914;PMS5003;35806;47.958;13.158;2022-09-12T08:03:56;4;4;
49914;PMS5003;35806;47.958;13.158;2022-09-12T08:06:24;7;7;
49914;PMS5003;35806;47.958;13.158;2022-09-12T08:08:53;6;4;
49914;PMS5003;35806;47.958;13.158;2022-09-12T08:11:22;5;5;
49914;PMS5003;35806;47.958;13.158;2022-09-12T08:13:52;5;5;
49914;PMS5003;35806;47.958;13.158;2022-09-12T08:16:21;5;5;
49914;PMS5003;35806;47.958;13.158;2022-09-12T08:18:50;5;5;
49914;PMS5003;35806;47.958;13.158;2022-09-12T08:21:17;4;3;
49914;PMS5003;35806;47.958;13.158;2022-09-12T08:23:46;8;7;
49914;PMS5003;35806;47.958;13.158;2022-09-12T08:26:18;6;6;
49914;PMS5003;35806;47.958;13.158;2022-09-12T08:28:46;4;4;
49914;PMS5003;35806;47.958;13.158;2022-09-12T08:31:15;5;5;
49914;PMS5003;35806;47.958;13.158;2022-09-12T08:33:43;5;5;
49914;PMS5003;35806;47.958;13.158;2022-09-12T08:36:11;5;5;
49914;PMS5003;35806;47.958;13.158;2022-09-12T08:38:46;4;4;
49914;PMS5003;35806;47.958;13.158;2022-09-12T08:41:18;4;4;
49914;PMS5003;35806;47.958;13.158;2022-09-12T08:43:56;3;3;
49914;PMS5003;35806;47.958;13.158;2022-09-12T08:46:36;4;4;
49914;PMS5003;35806;47.958;13.158;2022-09-12T08:49:10;3;3;
49914;PMS5003;35806;47.958;13.158;2022-09-12T08:51:43;3;3;
49914;PMS5003;35806;47.958;13.158;2022-09-12T08:54:18;7;5;
49914;PMS5003;35806;47.958;13.158;2022-09-12T08:56:50;4;4;
49914;PMS5003;35806;47.958;13.158;2022-09-12T08:59:23;2;2;
49914;PMS5003;35806;47.958;13.158;2022-09-12T09:01:50;4;3;
49914;PMS5003;35806;47.958;13.158;2022-09-12T09:04:29;3;3;
49914;PMS5003;35806;47.958;13.158;2022-09-12T09:04:39;3;3;
49914;PMS5003;35806;47.958;13.158;2022-09-12T09:07:19;4;4;
49914;PMS5003;35806;47.958;13.158;2022-09-12T09:09:58;4;2;
49914;PMS5003;35806;47.958;13.158;2022-09-12T09:12:38;4;4;
49914;PMS5003;35806;47.958;13.158;2022-09-12T09:15:16;2;2;
49914;PMS5003;35806;47.958;13.158;2022-09-12T09:17:59;4;4;
49914;PMS5003;35806;47.958;13.158;2022-09-12T09:20:32;4;4;
49914;PMS5003;35806;47.958;13.158;2022-09-12T09:23:24;5;5;
49914;PMS5003;35806;47.958;13.158;2022-09-12T09:25:55;5;5;
49914;PMS5003;35806;47.958;13.158;2022-09-12T09:28:27;4;4;
49914;PMS5003;35806;47.958;13.158;2022-09-12T09:31:01;5;5;
49914;PMS5003;35806;47.958;13.158;2022-09-12T09:33:33;7;4;
49914;PMS5003;35806;47.958;13.158;2022-09-12T09:36:03;5;5;
49914;PMS5003;35806;47.958;13.158;2022-09-12T09:38:45;5;5;
49914;PMS5003;35806;47.958;13.158;2022-09-12T09:41:19;6;6;
49914;PMS5003;35806;47.958;13.158;2022-09-12T09:43:56;3;3;
49914;PMS5003;35806;47.958;13.158;2022-09-12T09:46:24;6;6;
49914;PMS5003;35806;47.958;13.158;2022-09-12T09:48:53;5;5;
49914;PMS5003;35806;47.958;13.158;2022-09-12T09:51:24;6;6;
49914;PMS5003;35806;47.958;13.158;2022-09-12T09:53:53;5;5;
49914;PMS5003;35806;47.958;13.158;2022-09-12T09:56:29;6;6;
49914;PMS5003;35806;47.958;13.158;2022-09-12T09:59:08;5;5;
49914;PMS5003;35806;47.958;13.158;2022-09-12T10:01:36;6;6;
49914;PMS5003;35806;47.958;13.158;2022-09-12T10:04:14;6;5;
49914;PMS5003;35806;47.958;13.158;2022-09-12T10:06:44;5;5;
49914;PMS5003;35806;47.958;13.158;2022-09-12T10:09:20;5;5;
49914;PMS5003;35806;47.958;13.158;2022-09-12T10:11:50;5;5;
49914;PMS5003;35806;47.958;13.158;2022-09-12T10:14:27;4;4;
49914;PMS5003;35806;47.958;13.158;2022-09-12T10:16:56;7;6;
49914;PMS5003;35806;47.958;13.158;2022-09-12T10:19:32;6;6;
49914;PMS5003;35806;47.958;13.158;2022-09-12T10:22:01;4;4;
49914;PMS5003;35806;47.958;13.158;2022-09-12T10:24:31;5;5;
49914;PMS5003;35806;47.958;13.158;2022-09-12T10:27:06;6;6;
49914;PMS5003;35806;47.958;13.158;2022-09-12T10:29:40;5;5;
49914;PMS5003;35806;47.958;13.158;2022-09-12T10:32:11;5;5;
49914;PMS5003;35806;47.958;13.158;2022-09-12T10:34:46;6;6;
49914;PMS5003;35806;47.958;13.158;2022-09-12T10:37:16;6;6;
49914;PMS5003;35806;47.958;13.158;2022-09-12T10:39:49;6;6;
49914;PMS5003;35806;47.958;13.158;2022-09-12T10:42:40;6;6;
49914;PMS5003;35806;47.958;13.158;2022-09-12T10:45:28;6;5;
49914;PMS5003;35806;47.958;13.158;2022-09-12T10:47:57;5;5;
49914;PMS5003;35806;47.958;13.158;2022-09-12T10:50:28;8;7;
49914;PMS5003;35806;47.958;13.158;2022-09-12T10:53:14;4;4;
49914;PMS5003;35806;47.958;13.158;2022-09-12T10:56:02;5;5;
49914;PMS5003;35806;47.958;13.158;2022-09-12T10:58:36;4;3;
49914;PMS5003;35806;47.958;13.158;2022-09-12T11:01:24;4;4;
49914;PMS5003;35806;47.958;13.158;2022-09-12T11:04:08;7;7;
49914;PMS5003;35806;47.958;13.158;2022-09-12T11:06:47;5;5;
49914;PMS5003;35806;47.958;13.158;2022-09-12T11:09:25;6;6;
49914;PMS5003;35806;47.958;13.158;2022-09-12T11:12:02;6;6;
49914;PMS5003;35806;47.958;13.158;2022-09-12T11:14:45;5;5;
49914;PMS5003;35806;47.958;13.158;2022-09-12T11:17:24;5;5;
49914;PMS5003;35806;47.958;13.158;2022-09-12T11:20:13;3;3;
49914;PMS5003;35806;47.958;13.158;2022-09-12T11:23:45;6;6;
49914;PMS5003;35806;47.958;13.158;2022-09-12T11:26:36;7;7;
49914;PMS5003;35806;47.958;13.158;2022-09-12T11:29:12;7;6;
49914;PMS5003;35806;47.958;13.158;2022-09-12T11:31:57;6;6;
49914;PMS5003;35806;47.958;13.158;2022-09-12T11:34:36;6;6;
49914;PMS5003;35806;47.958;13.158;2022-09-12T11:37:17;6;6;
49914;PMS5003;35806;47.958;13.158;2022-09-12T11:39:58;6;6;
49914;PMS5003;35806;47.958;13.158;2022-09-12T11:42:34;3;3;
49914;PMS5003;35806;47.958;13.158;2022-09-12T11:45:08;4;4;
49914;PMS5003;35806;47.958;13.158;2022-09-12T11:47:43;5;5;
49914;PMS5003;35806;47.958;13.158;2022-09-12T11:50:15;5;5;
49914;PMS5003;35806;47.958;13.158;2022-09-12T11:52:47;7;5;
49914;PMS5003;35806;47.958;13.158;2022-09-12T11:55:18;3;3;
49914;PMS5003;35806;47.958;13.158;2022-09-12T11:57:51;6;5;
49914;PMS5003;35806;47.958;13.158;2022-09-12T12:00:22;5;5;
49914;PMS5003;35806;47.958;13.158;2022-09-12T12:02:56;5;5;
49914;PMS5003;35806;47.958;13.158;2022-09-12T12:05:31;4;4;
49914;PMS5003;35806;47.958;13.158;2022-09-12T12:08:06;5;5;
49914;PMS5003;35806;47.958;13.158;2022-09-12T12:10:36;3;3;
49914;PMS5003;35806;47.958;13.158;2022-09-12T12:13:07;2;2;
49914;PMS5003;35806;47.958;13.158;2022-09-12T12:15:44;3;3;
49914;PMS5003;35806;47.958;13.158;2022-09-12T12:18:15;4;4;
49914;PMS5003;35806;47.958;13.158;2022-09-12T12:20:45;4;4;
49914;PMS5003;35806;47.958;13.158;2022-09-12T12:23:30;3;3;
49914;PMS5003;35806;47.958;13.158;2022-09-12T12:26:00;4;4;
49914;PMS5003;35806;47.958;13.158;2022-09-12T12:29:07;2;1;
49914;PMS5003;35806;47.958;13.158;2022-09-12T12:31:58;5;4;
49914;PMS5003;35806;47.958;13.158;2022-09-12T12:34:46;4;4;
49914;PMS5003;35806;47.958;13.158;2022-09-12T12:37:46;3;3;
49914;PMS5003;35806;47.958;13.158;2022-09-12T12:40:20;4;4;
49914;PMS5003;35806;47.958;13.158;2022-09-12T12:42:57;3;3;
49914;PMS5003;35806;47.958;13.158;2022-09-12T12:46:30;3;3;
49914;PMS5003;35806;47.958;13.158;2022-09-12T12:49:06;3;3;
49914;PMS5003;35806;47.958;13.158;2022-09-12T12:51:42;2;2;
49914;PMS5003;35806;47.958;13.158;2022-09-12T12:54:29;3;3;
49914;PMS5003;35806;47.958;13.158;2022-09-12T12:56:59;3;3;
49914;PMS5003;35806;47.958;13.158;2022-09-12T12:59:28;2;2;
49914;PMS5003;35806;47.958;13.158;2022-09-12T13:01:56;2;1;
49914;PMS5003;35806;47.958;13.158;2022-09-12T13:04:26;3;3;
49914;PMS5003;35806;47.958;13.158;2022-09-12T13:06:58;2;2;
49914;PMS5003;35806;47.958;13.158;2022-09-12T13:09:29;3;3;
49914;PMS5003;35806;47.958;13.158;2022-09-12T13:12:01;1;1;
49914;PMS5003;35806;47.958;13.158;2022-09-12T13:14:34;2;2;
49914;PMS5003;35806;47.958;13.158;2022-09-12T13:17:57;3;3;
49914;PMS5003;35806;47.958;13.158;2022-09-12T13:20:28;2;2;
49914;PMS5003;35806;47.958;13.158;2022-09-12T13:22:58;3;3;
49914;PMS5003;35806;47.958;13.158;2022-09-12T13:25:28;4;3;
49914;PMS5003;35806;47.958;13.158;2022-09-12T13:27:58;2;2;
49914;PMS5003;35806;47.958;13.158;2022-09-12T13:30:27;2;2;
49914;PMS5003;35806;47.958;13.158;2022-09-12T13:32:58;3;3;
49914;PMS5003;35806;47.958;13.158;2022-09-12T13:35:38;4;4;
49914;PMS5003;35806;47.958;13.158;2022-09-12T13:38:20;3;3;
49914;PMS5003;35806;47.958;13.158;2022-09-12T13:41:01;2;2;
49914;PMS5003;35806;47.958;13.158;2022-09-12T13:43:44;2;2;
49914;PMS5003;35806;47.958;13.158;2022-09-12T13:46:13;1;1;
49914;PMS5003;35806;47.958;13.158;2022-09-12T13:48:43;3;2;
49914;PMS5003;35806;47.958;13.158;2022-09-12T13:51:17;4;3;
49914;PMS5003;35806;47.958;13.158;2022-09-12T13:53:49;2;2;
49914;PMS5003;35806;47.958;13.158;2022-09-12T13:56:19;2;2;
49914;PMS5003;35806;47.958;13.158;2022-09-12T13:58:50;2;2;
49914;PMS5003;35806;47.958;13.158;2022-09-12T14:01:19;2;2;
49914;PMS5003;35806;47.958;13.158;2022-09-12T14:03:48;2;2;
49914;PMS5003;35806;47.958;13.158;2022-09-12T14:06:16;3;3;
49914;PMS5003;35806;47.958;13.158;2022-09-12T14:09:36;4;4;
49914;PMS5003;35806;47.958;13.158;2022-09-12T14:12:09;2;2;
49914;PMS5003;35806;47.958;13.158;2022-09-12T14:14:40;2;2;
49914;PMS5003;35806;47.958;13.158;2022-09-12T14:17:47;4;4;
49914;PMS5003;35806;47.958;13.158;2022-09-12T14:20:20;3;3;
49914;PMS5003;35806;47.958;13.158;2022-09-12T14:22:49;3;3;
49914;PMS5003;35806;47.958;13.158;2022-09-12T14:25:17;4;4;
49914;PMS5003;35806;47.958;13.158;2022-09-12T14:27:47;5;3;
49914;PMS5003;35806;47.958;13.158;2022-09-12T14:30:19;2;2;
49914;PMS5003;35806;47.958;13.158;2022-09-12T14:33:14;3;3;
49914;PMS5003;35806;47.958;13.158;2022-09-12T14:35:44;3;3;
49914;PMS5003;35806;47.958;13.158;2022-09-12T14:38:17;2;2;
49914;PMS5003;35806;47.958;13.158;2022-09-12T14:40:49;3;3;
49914;PMS5003;35806;47.958;13.158;2022-09-12T14:43:19;6;5;
49914;PMS5003;35806;47.958;13.158;2022-09-12T14:45:51;4;4;
49914;PMS5003;35806;47.958;13.158;2022-09-12T14:48:20;5;4;
49914;PMS5003;35806;47.958;13.158;2022-09-12T14:50:48;5;5;
49914;PMS5003;35806;47.958;13.158;2022-09-12T14:53:22;4;4;
49914;PMS5003;35806;47.958;13.158;2022-09-12T14:55:56;4;4;
49914;PMS5003;35806;47.958;13.158;2022-09-12T14:58:31;4;4;
49914;PMS5003;35806;47.958;13.158;2022-09-12T15:01:00;6;6;
49914;PMS5003;35806;47.958;13.158;2022-09-12T15:03:48;4;4;
49914;PMS5003;35806;47.958;13.158;2022-09-12T15:06:19;4;4;
49914;PMS5003;35806;47.958;13.158;2022-09-12T15:08:49;4;4;
49914;PMS5003;35806;47.958;13.158;2022-09-12T15:11:19;4;4;
49914;PMS5003;35806;47.958;13.158;2022-09-12T15:13:46;5;5;
49914;PMS5003;35806;47.958;13.158;2022-09-12T15:16:14;7;7;
49914;PMS5003;35806;47.958;13.158;2022-09-12T15:18:42;5;5;
49914;PMS5003;35806;47.958;13.158;2022-09-12T15:21:11;7;7;
49914;PMS5003;35806;47.958;13.158;2022-09-12T15:23:47;7;7;
49914;PMS5003;35806;47.958;13.158;2022-09-12T15:26:16;5;5;
49914;PMS5003;35806;47.958;13.158;2022-09-12T15:28:44;7;7;
49914;PMS5003;35806;47.958;13.158;2022-09-12T15:31:14;6;6;
49914;PMS5003;35806;47.958;13.158;2022-09-12T15:33:49;6;6;
49914;PMS5003;35806;47.958;13.158;2022-09-12T15:36:17;5;5;
49914;PMS5003;35806;47.958;13.158;2022-09-12T15:38:46;6;6;
49914;PMS5003;35806;47.958;13.158;2022-09-12T15:41:14;6;6;
49914;PMS5003;35806;47.958;13.158;2022-09-12T15:43:43;7;4;
49914;PMS5003;35806;47.958;13.158;2022-09-12T15:46:11;6;6;
49914;PMS5003;35806;47.958;13.158;2022-09-12T15:48:39;7;6;
49914;PMS5003;35806;47.958;13.158;2022-09-12T15:51:08;5;5;
49914;PMS5003;35806;47.958;13.158;2022-09-12T15:53:38;7;7;
49914;PMS5003;35806;47.958;13.158;2022-09-12T15:56:11;7;6;
49914;PMS5003;35806;47.958;13.158;2022-09-12T15:58:39;5;5;
49914;PMS5003;35806;47.958;13.158;2022-09-12T16:01:08;6;6;
49914;PMS5003;35806;47.958;13.158;2022-09-12T16:03:37;7;7;
49914;PMS5003;35806;47.958;13.158;2022-09-12T16:06:05;7;7;
49914;PMS5003;35806;47.958;13.158;2022-09-12T16:08:32;5;5;
49914;PMS5003;35806;47.958;13.158;2022-09-12T16:11:00;5;5;
49914;PMS5003;35806;47.958;13.158;2022-09-12T16:13:37;6;6;
49914;PMS5003;35806;47.958;13.158;2022-09-12T16:16:04;6;6;
49914;PMS5003;35806;47.958;13.158;2022-09-12T16:18:32;8;8;
49914;PMS5003;35806;47.958;13.158;2022-09-12T16:20:59;8;7;
49914;PMS5003;35806;47.958;13.158;2022-09-12T16:23:26;5;5;
49914;PMS5003;35806;47.958;13.158;2022-09-12T16:25:55;7;7;
49914;PMS5003;35806;47.958;13.158;2022-09-12T16:28:23;6;6;
49914;PMS5003;35806;47.958;13.158;2022-09-12T16:30:54;6;6;
49914;PMS5003;35806;47.958;13.158;2022-09-12T16:33:22;5;5;
49914;PMS5003;35806;47.958;13.158;2022-09-12T16:35:49;7;7;
49914;PMS5003;35806;47.958;13.158;2022-09-12T16:38:17;7;7;
49914;PMS5003;35806;47.958;13.158;2022-09-12T16:40:44;8;8;
49914;PMS5003;35806;47.958;13.158;2022-09-12T16:43:12;8;7;
49914;PMS5003;35806;47.958;13.158;2022-09-12T16:45:39;8;8;
49914;PMS5003;35806;47.958;13.158;2022-09-12T16:48:07;9;9;
49914;PMS5003;35806;47.958;13.158;2022-09-12T16:50:34;7;7;
49914;PMS5003;35806;47.958;13.158;2022-09-12T16:53:02;6;6;
49914;PMS5003;35806;47.958;13.158;2022-09-12T16:55:29;7;7;
49914;PMS5003;35806;47.958;13.158;2022-09-12T16:57:56;6;5;
49914;PMS5003;35806;47.958;13.158;2022-09-12T17:00:24;7;7;
49914;PMS5003;35806;47.958;13.158;2022-09-12T17:02:51;11;9;
49914;PMS5003;35806;47.958;13.158;2022-09-12T17:05:19;8;8;
49914;PMS5003;35806;47.958;13.158;2022-09-12T17:07:46;8;7;
49914;PMS5003;35806;47.958;13.158;2022-09-12T17:10:23;7;7;
49914;PMS5003;35806;47.958;13.158;2022-09-12T17:12:49;8;8;
49914;PMS5003;35806;47.958;13.158;2022-09-12T17:15:17;9;8;
49914;PMS5003;35806;47.958;13.158;2022-09-12T17:17:44;7;7;
49914;PMS5003;35806;47.958;13.158;2022-09-12T17:20:12;8;6;
49914;PMS5003;35806;47.958;13.158;2022-09-12T17:22:40;6;6;